createdAt,value
2022-11-29T00:00:08.920Z,16.97
2022-11-29T00:02:36.616Z,24.03
2022-11-29T00:05:04.314Z,21.63
2022-11-29T00:07:31.979Z,18.60
2022-11-29T00:09:59.467Z,19.10
2022-11-29T00:12:26.955Z,20.83
2022-11-29T00:14:54.450Z,23.67
2022-11-29T00:17:23.322Z,19.83
2022-11-29T00:19:50.954Z,21.10
2022-11-29T00:22:18.486Z,23.10
2022-11-29T00:24:46.149Z,18.37
2022-11-29T00:27:13.821Z,24.23
2022-11-29T00:29:41.263Z,22.07
2022-11-29T00:32:08.713Z,25.53
2022-11-29T00:34:37.980Z,18.63
2022-11-29T00:37:05.489Z,18.27
2022-11-29T00:39:33.060Z,17.27
2022-11-29T00:42:00.537Z,23.70
2022-11-29T00:44:28.056Z,17.07
2022-11-29T00:46:55.524Z,20.57
2022-11-29T00:49:23.006Z,18.87
2022-11-29T00:51:51.899Z,18.20
2022-11-29T00:54:19.435Z,19.57
2022-11-29T00:56:46.970Z,23.93
2022-11-29T00:59:14.425Z,20.10
2022-11-29T01:01:42.038Z,21.20
2022-11-29T01:04:09.583Z,18.33
2022-11-29T01:06:37.305Z,20.90
2022-11-29T01:09:06.753Z,19.50
2022-11-29T01:11:34.434Z,20.17
2022-11-29T01:14:03.893Z,21.10
2022-11-29T01:16:32.135Z,17.27
2022-11-29T01:19:00.337Z,20.60
2022-11-29T01:21:27.927Z,18.03
2022-11-29T01:23:55.743Z,18.80
2022-11-29T01:26:26.002Z,22.87
2022-11-29T01:28:55.297Z,24.77
2022-11-29T01:31:25.121Z,19.17
2022-11-29T01:33:54.598Z,22.83
2022-11-29T01:36:22.173Z,21.47
2022-11-29T01:38:49.662Z,18.13
2022-11-29T01:41:19.300Z,17.77
2022-11-29T01:44:01.088Z,19.90
2022-11-29T01:46:29.392Z,18.60
2022-11-29T01:49:01.727Z,21.47
2022-11-29T01:51:29.556Z,18.97
2022-11-29T01:53:57.132Z,22.47
2022-11-29T01:56:25.407Z,22.80
2022-11-29T01:58:53.109Z,19.83
2022-11-29T02:01:22.050Z,20.27
2022-11-29T02:03:49.743Z,17.53
2022-11-29T02:06:17.631Z,22.17
2022-11-29T02:08:45.153Z,20.63
2022-11-29T02:11:49.673Z,21.27
2022-11-29T02:14:29.886Z,16.53
2022-11-29T02:17:02.651Z,23.93
2022-11-29T02:19:54.716Z,21.43
2022-11-29T02:22:25.652Z,19.37
2022-11-29T02:25:07.734Z,19.67
2022-11-29T02:28:03.384Z,21.70
2022-11-29T02:30:47.357Z,20.10
2022-11-29T02:33:33.793Z,21.70
2022-11-29T02:36:13.386Z,21.47
2022-11-29T02:39:04.449Z,22.20
2022-11-29T02:41:45.464Z,19.30
2022-11-29T02:44:38.170Z,20.00
2022-11-29T02:47:16.887Z,19.63
2022-11-29T02:50:05.654Z,22.77
2022-11-29T02:52:39.297Z,20.70
2022-11-29T02:55:10.937Z,20.43
2022-11-29T02:57:43.752Z,21.30
2022-11-29T03:00:14.851Z,18.90
2022-11-29T03:02:49.268Z,16.43
2022-11-29T03:05:21.515Z,16.90
2022-11-29T03:07:54.722Z,19.73
2022-11-29T03:10:30.581Z,18.37
2022-11-29T03:12:59.595Z,20.90
2022-11-29T03:15:31.025Z,20.80
2022-11-29T03:18:09.730Z,26.03
2022-11-29T03:20:46.601Z,22.10
2022-11-29T03:23:19.644Z,22.37
2022-11-29T03:25:50.217Z,22.23
2022-11-29T03:28:20.463Z,16.90
2022-11-29T03:30:53.761Z,20.03
2022-11-29T03:33:27.413Z,18.20
2022-11-29T03:36:00.612Z,22.17
2022-11-29T03:38:34.076Z,17.90
2022-11-29T03:41:06.825Z,20.37
2022-11-29T03:43:40.546Z,20.97
2022-11-29T03:46:12.531Z,19.50
2022-11-29T03:48:43.843Z,19.50
2022-11-29T03:51:15.859Z,16.87
2022-11-29T03:53:49.205Z,18.60
2022-11-29T03:56:25.118Z,16.77
2022-11-29T03:58:56.455Z,22.87
2022-11-29T04:01:38.822Z,18.33
2022-11-29T04:04:42.928Z,16.23
2022-11-29T04:07:27.771Z,19.73
2022-11-29T04:10:07.834Z,16.57
2022-11-29T04:13:04.963Z,18.67
2022-11-29T04:16:03.000Z,15.20
2022-11-29T04:18:54.698Z,20.10
2022-11-29T04:21:32.011Z,18.37
2022-11-29T04:24:32.953Z,19.07
2022-11-29T04:27:40.287Z,17.37
2022-11-29T04:30:15.304Z,19.70
2022-11-29T04:33:08.563Z,17.20
2022-11-29T04:36:32.987Z,16.77
2022-11-29T04:39:08.678Z,19.73
2022-11-29T04:41:55.573Z,16.40
2022-11-29T04:44:38.578Z,21.03
2022-11-29T04:47:20.819Z,16.30
2022-11-29T04:50:00.944Z,17.87
2022-11-29T04:52:43.565Z,18.77
2022-11-29T04:55:26.197Z,18.90
2022-11-29T04:58:00.895Z,18.80
2022-11-29T05:00:32.478Z,16.80
2022-11-29T05:03:01.505Z,17.53
2022-11-29T05:05:34.551Z,20.87
2022-11-29T05:08:16.043Z,15.57
2022-11-29T05:10:48.491Z,19.23
2022-11-29T05:13:21.826Z,17.37
2022-11-29T05:16:05.594Z,22.33
2022-11-29T05:18:50.970Z,21.53
2022-11-29T05:21:26.006Z,22.27
2022-11-29T05:24:00.620Z,19.87
2022-11-29T05:26:30.542Z,19.73
2022-11-29T05:29:02.717Z,22.27
2022-11-29T05:31:51.967Z,20.33
2022-11-29T05:34:35.255Z,21.40
2022-11-29T05:37:09.076Z,18.00
2022-11-29T05:39:48.967Z,18.87
2022-11-29T05:42:33.858Z,16.70
2022-11-29T05:45:04.943Z,22.40
2022-11-29T05:47:39.390Z,20.30
2022-11-29T05:50:12.432Z,20.03
2022-11-29T05:52:48.548Z,17.87
2022-11-29T05:55:23.407Z,23.07
2022-11-29T05:57:56.048Z,16.80
2022-11-29T06:00:24.052Z,19.13
2022-11-29T06:02:58.911Z,20.17
2022-11-29T06:05:33.181Z,21.60
2022-11-29T06:08:06.941Z,20.00
2022-11-29T06:10:38.089Z,24.20
2022-11-29T06:13:18.164Z,22.00
2022-11-29T06:16:14.035Z,20.50
2022-11-29T06:19:12.914Z,18.60
2022-11-29T06:21:46.512Z,19.60
2022-11-29T06:24:36.009Z,20.70
2022-11-29T06:27:17.647Z,21.27
2022-11-29T06:29:50.296Z,26.73
2022-11-29T06:32:22.534Z,22.53
2022-11-29T06:34:56.791Z,23.10
2022-11-29T06:37:28.670Z,21.90
2022-11-29T06:39:56.772Z,25.00
2022-11-29T06:42:24.338Z,20.40
2022-11-29T06:44:52.371Z,20.33
2022-11-29T06:47:24.919Z,22.90
2022-11-29T06:49:57.375Z,19.60
2022-11-29T06:52:29.250Z,20.37
2022-11-29T06:55:16.468Z,16.90
2022-11-29T06:57:56.983Z,23.27
2022-11-29T07:00:27.224Z,22.93
2022-11-29T07:03:11.214Z,21.00
2022-11-29T07:05:41.099Z,19.37
2022-11-29T07:08:13.133Z,20.60
2022-11-29T07:10:42.041Z,21.03
2022-11-29T07:13:12.480Z,23.60
2022-11-29T07:15:40.403Z,23.57
2022-11-29T07:18:18.243Z,23.03
2022-11-29T07:20:55.843Z,18.37
2022-11-29T07:23:29.800Z,24.73
2022-11-29T07:26:04.980Z,20.53
2022-11-29T07:28:40.742Z,20.57
2022-11-29T07:31:13.413Z,23.30
2022-11-29T07:33:48.156Z,29.23
2022-11-29T07:36:22.374Z,24.77
2022-11-29T07:38:58.784Z,20.27
2022-11-29T07:41:34.869Z,24.40
2022-11-29T07:44:06.540Z,20.00
2022-11-29T07:46:34.102Z,23.97
2022-11-29T07:49:01.666Z,21.53
2022-11-29T07:51:30.564Z,26.63
2022-11-29T07:53:58.091Z,23.83
2022-11-29T07:56:25.620Z,25.93
2022-11-29T07:58:53.137Z,22.23
2022-11-29T08:01:20.734Z,27.70
2022-11-29T08:03:48.388Z,23.97
2022-11-29T08:06:15.923Z,26.37
2022-11-29T08:08:44.776Z,25.50
2022-11-29T08:11:12.811Z,29.07
2022-11-29T08:13:40.323Z,22.90
2022-11-29T08:16:08.604Z,27.80
2022-11-29T08:18:37.190Z,24.60
2022-11-29T08:21:06.867Z,21.53
2022-11-29T08:23:34.454Z,24.90
2022-11-29T08:26:03.778Z,28.13
2022-11-29T08:28:31.256Z,28.07
2022-11-29T08:31:02.759Z,32.93
2022-11-29T08:33:30.986Z,28.67
2022-11-29T08:36:05.459Z,21.33
2022-11-29T08:38:32.954Z,26.80
2022-11-29T08:41:03.148Z,26.43
2022-11-29T08:43:30.897Z,22.97
2022-11-29T08:45:58.529Z,27.53
2022-11-29T08:48:26.575Z,27.20
2022-11-29T08:50:55.841Z,25.70
2022-11-29T08:53:42.419Z,24.50
2022-11-29T08:56:53.347Z,24.73
2022-11-29T08:59:00.751Z,24.33
2022-11-29T09:01:29.208Z,31.47
2022-11-29T09:04:07.620Z,26.93
2022-11-29T09:06:38.740Z,31.10
2022-11-29T09:09:06.441Z,22.87
2022-11-29T09:11:36.567Z,27.00
2022-11-29T09:14:07.045Z,27.63
2022-11-29T09:16:36.032Z,28.80
2022-11-29T09:19:03.989Z,49.27
2022-11-29T09:21:32.873Z,30.57
2022-11-29T09:24:01.434Z,32.00
2022-11-29T09:26:30.952Z,38.27
2022-11-29T09:29:01.500Z,33.13
2022-11-29T09:31:29.799Z,38.63
2022-11-29T09:33:57.726Z,41.60
2022-11-29T09:36:28.743Z,39.17
2022-11-29T09:38:56.833Z,34.90
2022-11-29T09:41:38.493Z,41.00
2022-11-29T09:44:10.980Z,44.17
2022-11-29T09:46:43.143Z,39.83
2022-11-29T09:49:35.195Z,38.30
2022-11-29T09:52:06.609Z,46.30
2022-11-29T09:54:39.264Z,38.27
2022-11-29T09:57:10.890Z,44.80
2022-11-29T09:59:43.276Z,40.47
2022-11-29T10:02:21.301Z,45.43
2022-11-29T10:04:53.320Z,37.70
2022-11-29T10:07:24.283Z,44.27
2022-11-29T10:09:55.581Z,48.63
2022-11-29T10:12:28.887Z,41.47
2022-11-29T10:15:01.329Z,44.60
2022-11-29T10:17:34.277Z,39.77
2022-11-29T10:20:06.250Z,45.83
2022-11-29T10:22:40.738Z,43.43
2022-11-29T10:25:10.324Z,40.70
2022-11-29T10:27:40.919Z,42.60
2022-11-29T10:30:15.932Z,43.87
2022-11-29T10:32:45.493Z,43.00
2022-11-29T10:35:14.860Z,37.70
2022-11-29T10:37:45.860Z,38.30
2022-11-29T10:40:31.248Z,33.00
2022-11-29T10:42:58.808Z,37.30
2022-11-29T10:45:33.831Z,36.00
2022-11-29T10:48:04.660Z,45.53
2022-11-29T10:50:48.613Z,37.90
2022-11-29T10:53:17.543Z,30.90
2022-11-29T10:55:47.164Z,37.57
2022-11-29T10:58:23.269Z,31.30
2022-11-29T11:00:57.294Z,30.77
2022-11-29T11:03:33.670Z,34.57
2022-11-29T11:06:04.571Z,35.50
2022-11-29T11:08:33.053Z,40.83
2022-11-29T11:11:02.914Z,41.17
2022-11-29T11:13:32.240Z,41.23
2022-11-29T11:16:10.254Z,37.80
2022-11-29T11:18:38.699Z,36.40
2022-11-29T11:21:09.510Z,36.33
2022-11-29T11:23:42.791Z,34.97
2022-11-29T11:26:13.128Z,36.67
2022-11-29T11:28:44.403Z,34.67
2022-11-29T11:31:14.194Z,34.23
2022-11-29T11:33:42.714Z,36.73
2022-11-29T11:36:14.038Z,33.83
2022-11-29T11:38:43.425Z,28.93
2022-11-29T11:41:18.767Z,32.97
2022-11-29T11:43:51.923Z,42.20
2022-11-29T11:46:21.169Z,32.00
2022-11-29T11:48:48.887Z,31.60
2022-11-29T11:51:25.860Z,38.77
2022-11-29T11:53:55.720Z,39.37
2022-11-29T11:56:25.140Z,40.97
2022-11-29T11:58:54.612Z,36.90
2022-11-29T12:01:30.977Z,36.70
2022-11-29T12:04:03.676Z,36.77
2022-11-29T12:06:40.888Z,36.53
2022-11-29T12:09:16.424Z,34.37
2022-11-29T12:11:49.581Z,33.80
2022-11-29T12:14:23.118Z,34.30
2022-11-29T12:16:59.520Z,34.57
2022-11-29T12:19:31.413Z,31.03
2022-11-29T12:22:03.583Z,39.17
2022-11-29T12:24:34.924Z,29.70
2022-11-29T12:27:05.237Z,33.97
2022-11-29T12:29:34.797Z,39.37
2022-11-29T12:32:15.836Z,30.03
2022-11-29T12:35:01.514Z,34.10
2022-11-29T12:37:33.917Z,33.07
2022-11-29T12:40:09.131Z,30.13
2022-11-29T12:42:43.029Z,33.23
2022-11-29T12:45:22.345Z,31.67
2022-11-29T12:47:55.980Z,34.87
2022-11-29T12:50:32.486Z,36.70
2022-11-29T12:53:09.668Z,36.40
2022-11-29T12:55:43.997Z,29.73
2022-11-29T12:58:15.589Z,37.23
2022-11-29T13:00:47.641Z,29.43
2022-11-29T13:03:22.345Z,37.03
2022-11-29T13:05:57.230Z,35.67
2022-11-29T13:08:39.296Z,37.30
2022-11-29T13:11:14.614Z,33.80
2022-11-29T13:13:44.088Z,34.83
2022-11-29T13:16:30.867Z,33.10
2022-11-29T13:19:06.590Z,29.97
2022-11-29T13:21:38.148Z,30.27
2022-11-29T13:24:09.032Z,31.13
2022-11-29T13:26:37.974Z,38.03
2022-11-29T13:29:05.616Z,36.23
2022-11-29T13:31:33.797Z,31.00
2022-11-29T13:34:08.613Z,31.83
2022-11-29T13:36:46.734Z,31.23
2022-11-29T13:39:29.119Z,30.80
2022-11-29T13:42:02.527Z,38.17
2022-11-29T13:44:35.799Z,36.97
2022-11-29T13:47:07.226Z,30.70
2022-11-29T13:49:59.084Z,37.67
2022-11-29T13:52:39.334Z,34.80
2022-11-29T13:55:15.854Z,31.10
2022-11-29T13:58:15.489Z,30.00
2022-11-29T14:00:50.711Z,34.00
2022-11-29T14:03:31.704Z,36.33
2022-11-29T14:06:09.783Z,40.17
2022-11-29T14:09:02.402Z,33.13
2022-11-29T14:11:28.164Z,31.70
2022-11-29T14:14:00.479Z,39.00
2022-11-29T14:16:32.431Z,37.90
2022-11-29T14:19:30.127Z,29.60
2022-11-29T14:22:22.503Z,36.77
2022-11-29T14:25:21.660Z,36.03
2022-11-29T14:28:00.722Z,35.67
2022-11-29T14:31:01.225Z,37.83
2022-11-29T14:33:56.421Z,38.13
2022-11-29T14:36:38.247Z,34.20
2022-11-29T14:39:21.530Z,33.50
2022-11-29T14:41:56.655Z,33.20
2022-11-29T14:44:26.117Z,35.27
2022-11-29T14:47:01.478Z,33.13
2022-11-29T14:49:29.955Z,32.53
2022-11-29T14:52:28.087Z,38.73
2022-11-29T14:55:06.201Z,35.13
2022-11-29T14:57:56.078Z,34.27
2022-11-29T15:00:25.857Z,35.57
2022-11-29T15:02:54.568Z,31.33
2022-11-29T15:05:28.004Z,29.73
2022-11-29T15:08:05.121Z,27.77
2022-11-29T15:10:44.430Z,33.90
2022-11-29T15:13:18.487Z,33.10
2022-11-29T15:16:07.392Z,32.87
2022-11-29T15:18:55.653Z,31.50
2022-11-29T15:21:31.297Z,33.23
2022-11-29T15:24:00.662Z,29.33
2022-11-29T15:26:32.799Z,25.57
2022-11-29T15:29:15.984Z,23.17
2022-11-29T15:31:44.605Z,26.43
2022-11-29T15:34:20.779Z,22.30
2022-11-29T15:36:48.356Z,23.17
2022-11-29T15:39:30.906Z,25.10
2022-11-29T15:42:11.366Z,30.17
2022-11-29T15:44:39.261Z,23.23
2022-11-29T15:47:17.044Z,28.33
2022-11-29T15:49:44.743Z,23.70
2022-11-29T15:52:20.359Z,28.10
2022-11-29T15:54:51.208Z,25.13
2022-11-29T15:57:24.421Z,23.33
2022-11-29T15:59:54.207Z,23.60
2022-11-29T16:02:24.293Z,23.30
2022-11-29T16:04:54.762Z,22.03
2022-11-29T16:07:24.075Z,24.90
2022-11-29T16:09:54.202Z,38.40
2022-11-29T16:12:23.643Z,32.23
2022-11-29T16:14:55.317Z,28.47
2022-11-29T16:17:26.079Z,26.10
2022-11-29T16:20:06.473Z,26.23
2022-11-29T16:22:34.016Z,22.90
2022-11-29T16:25:06.206Z,26.70
2022-11-29T16:27:36.368Z,24.53
2022-11-29T16:30:10.531Z,26.80
2022-11-29T16:32:39.422Z,27.63
2022-11-29T16:35:11.435Z,27.23
2022-11-29T16:37:44.121Z,31.40
2022-11-29T16:40:24.370Z,28.50
2022-11-29T16:43:09.367Z,28.67
2022-11-29T16:45:39.067Z,25.53
2022-11-29T16:48:40.976Z,29.57
2022-11-29T16:51:27.439Z,25.00
2022-11-29T16:55:00.609Z,31.70
2022-11-29T16:57:33.125Z,22.77
2022-11-29T17:00:47.100Z,25.07
2022-11-29T17:03:39.312Z,24.07
2022-11-29T17:06:37.143Z,26.57
2022-11-29T17:09:09.800Z,25.67
2022-11-29T17:11:43.656Z,22.47
2022-11-29T17:14:26.222Z,23.63
2022-11-29T17:17:50.940Z,22.30
2022-11-29T17:20:08.487Z,22.20
2022-11-29T17:22:57.556Z,27.87
2022-11-29T17:25:37.287Z,22.73
2022-11-29T17:28:10.947Z,20.20
2022-11-29T17:31:09.132Z,21.23
2022-11-29T17:34:23.788Z,24.00
2022-11-29T17:37:01.024Z,21.50
2022-11-29T17:43:35.160Z,23.63
2022-11-29T17:46:34.095Z,21.70
2022-11-29T17:50:24.961Z,20.57
2022-11-29T17:57:58.041Z,24.77
2022-11-29T18:16:28.010Z,25.40
2022-11-29T18:18:59.585Z,28.73
2022-11-29T18:22:03.510Z,28.87
2022-11-29T18:26:00.756Z,25.23
2022-11-29T18:34:34.746Z,30.40
2022-11-29T18:37:23.387Z,27.87
2022-11-29T18:40:03.388Z,27.57
2022-11-29T18:42:30.916Z,27.73
2022-11-29T18:45:00.287Z,34.73
2022-11-29T18:47:32.757Z,28.63
2022-11-29T18:50:00.253Z,40.63
2022-11-29T18:52:27.741Z,29.70
2022-11-29T18:54:55.269Z,31.00
2022-11-29T18:57:25.793Z,34.83
2022-11-29T18:59:53.310Z,35.63
2022-11-29T19:02:21.104Z,36.90
2022-11-29T19:04:50.239Z,34.87
2022-11-29T19:07:27.020Z,30.80
2022-11-29T19:09:54.703Z,24.13
2022-11-29T19:12:22.280Z,32.40
2022-11-29T19:14:50.284Z,26.80
2022-11-29T19:17:44.693Z,26.07
2022-11-29T19:23:43.279Z,25.70
2022-11-29T19:26:28.810Z,29.80
2022-11-29T19:29:13.248Z,29.30
2022-11-29T19:31:42.715Z,33.40
2022-11-29T19:34:17.947Z,26.87
2022-11-29T19:36:56.076Z,28.07
2022-11-29T19:39:30.736Z,25.17
2022-11-29T19:42:00.571Z,21.63
2022-11-29T19:44:39.085Z,21.53
2022-11-29T19:47:30.820Z,24.27
2022-11-29T19:50:31.149Z,23.97
2022-11-29T19:53:01.360Z,23.50
2022-11-29T19:55:42.324Z,22.77
2022-11-29T19:58:29.292Z,22.50
2022-11-29T20:04:25.457Z,26.47
2022-11-29T20:07:33.518Z,23.67
2022-11-29T20:13:07.723Z,27.90
2022-11-29T20:16:17.246Z,26.50
2022-11-29T20:18:53.703Z,22.40
2022-11-29T20:22:00.495Z,26.10
2022-11-29T20:24:45.407Z,28.97
2022-11-29T20:27:19.985Z,25.00
2022-11-29T20:30:01.342Z,24.07
2022-11-29T20:32:30.860Z,23.77
2022-11-29T20:35:12.913Z,26.77
2022-11-29T20:38:04.948Z,27.40
2022-11-29T20:41:03.011Z,27.80
2022-11-29T20:44:01.073Z,27.93
2022-11-29T20:47:07.899Z,27.00
2022-11-29T20:49:57.091Z,25.20
2022-11-29T20:55:33.200Z,24.93
2022-11-29T20:58:54.914Z,29.27
2022-11-29T21:05:17.180Z,20.00
2022-11-29T21:07:47.508Z,26.00
2022-11-29T21:10:26.892Z,25.33
2022-11-29T21:13:02.010Z,20.83
2022-11-29T21:16:05.372Z,20.50
2022-11-29T21:18:38.969Z,24.60
2022-11-29T21:21:20.492Z,21.00
2022-11-29T21:24:00.287Z,19.20
2022-11-29T21:26:38.525Z,24.77
2022-11-29T21:29:20.213Z,28.77
2022-11-29T21:32:56.401Z,21.17
2022-11-29T21:35:36.765Z,21.80
2022-11-29T21:38:06.458Z,19.73
2022-11-29T21:40:40.675Z,21.40
2022-11-29T21:43:28.761Z,22.87
2022-11-29T21:46:10.103Z,17.77
2022-11-29T21:48:38.248Z,20.73
2022-11-29T21:51:13.624Z,17.10
2022-11-29T21:53:47.126Z,23.43
2022-11-29T21:59:00.402Z,24.77
2022-11-29T22:01:29.611Z,21.23
2022-11-29T22:04:02.052Z,19.87
2022-11-29T22:09:58.336Z,28.87
2022-11-29T22:12:52.432Z,26.27
2022-11-29T22:15:24.798Z,23.40
2022-11-29T22:17:53.167Z,19.17
2022-11-29T22:20:20.860Z,21.30
2022-11-29T22:22:52.521Z,21.10
2022-11-29T22:25:23.557Z,24.43
2022-11-29T22:27:51.660Z,27.37
2022-11-29T22:30:19.610Z,25.10
2022-11-29T22:32:47.600Z,22.73
2022-11-29T22:35:15.535Z,21.70
2022-11-29T22:37:43.226Z,23.13
2022-11-29T22:40:13.128Z,27.37
2022-11-29T22:42:41.873Z,24.30
2022-11-29T22:45:10.140Z,22.97
2022-11-29T22:47:38.258Z,26.03
2022-11-29T22:50:07.599Z,20.53
2022-11-29T22:52:35.265Z,25.13
2022-11-29T22:55:05.330Z,19.10
2022-11-29T22:57:34.659Z,24.50
2022-11-29T23:00:02.469Z,20.33
2022-11-29T23:02:30.329Z,24.13
2022-11-29T23:04:58.049Z,16.63
2022-11-29T23:07:27.468Z,24.10
2022-11-29T23:09:56.214Z,20.50
2022-11-29T23:12:39.194Z,26.43
2022-11-29T23:15:09.119Z,20.80
2022-11-29T23:17:36.844Z,24.33
2022-11-29T23:20:05.530Z,21.63
2022-11-29T23:22:33.151Z,22.43
2022-11-29T23:25:00.678Z,22.80
2022-11-29T23:27:28.452Z,20.23
2022-11-29T23:30:00.475Z,22.40
2022-11-29T23:32:29.397Z,21.57
2022-11-29T23:34:57.157Z,23.03
2022-11-29T23:37:25.631Z,26.23
2022-11-29T23:39:53.371Z,27.07
2022-11-29T23:42:20.953Z,23.63
2022-11-29T23:44:50.661Z,26.50
2022-11-29T23:47:18.430Z,20.57
2022-11-29T23:49:47.488Z,24.40
2022-11-29T23:52:15.010Z,22.67
2022-11-29T23:54:42.689Z,24.63
2022-11-29T23:57:10.334Z,24.63
2022-11-29T23:59:40.724Z,26.20
